Time;durP1;ratioP1;P1;durP2;ratioP2;P2;SDS_P1;SDS_P2;PMS_P1;PMS_P2;Temp;Humidity;BMP_temperature;BMP_pressure;BME280_temperature;BME280_humidity;BME280_pressure;Samples;Min_cycle;Max_cycle;Signal;HPM_P1;HPM_P2
2022/12/26 00:01:47;;;;;;;7.10;6.32;;;10.60;99.90;;;;;;5106288;28;20024;-78
2022/12/26 00:04:15;;;;;;;9.63;5.18;;;10.60;99.90;;;;;;5094011;28;20601;-77
2022/12/26 00:06:41;;;;;;;8.07;7.28;;;10.50;99.90;;;;;;5094694;28;20047;-78
2022/12/26 00:09:07;;;;;;;7.90;7.30;;;10.60;99.90;;;;;;5129599;28;20035;-78
2022/12/26 00:11:33;;;;;;;6.70;6.03;;;10.50;99.90;;;;;;5093466;28;20039;-78
2022/12/26 00:14:03;;;;;;;5.72;5.22;;;10.50;99.90;;;;;;5108048;28;20096;-77
2022/12/26 00:16:30;;;;;;;6.60;5.85;;;10.50;99.90;;;;;;5109266;28;20032;-78
2022/12/26 00:18:56;;;;;;;6.78;4.82;;;10.50;99.90;;;;;;5091199;28;20044;-78
2022/12/26 00:21:26;;;;;;;6.47;5.88;;;10.50;99.90;;;;;;5110272;28;20465;-78
2022/12/26 00:23:54;;;;;;;5.43;4.97;;;10.40;99.90;;;;;;5128698;28;20031;-78
2022/12/26 00:26:22;;;;;;;4.90;4.50;;;10.30;99.90;;;;;;5107256;28;20024;-78
2022/12/26 00:28:48;;;;;;;4.28;3.88;;;10.30;99.90;;;;;;5108144;28;20036;-77
2022/12/26 00:31:20;;;;;;;5.05;4.65;;;10.20;99.90;;;;;;5118031;28;20168;-78
2022/12/26 00:33:46;;;;;;;3.67;3.38;;;10.20;99.90;;;;;;5106118;28;20038;-77
2022/12/26 00:36:16;;;;;;;4.47;4.18;;;10.20;99.90;;;;;;5108476;28;20048;-78
2022/12/26 00:38:43;;;;;;;;;;;10.10;99.90;;;;;;5127136;28;20016;-78
2022/12/26 00:41:10;;;;;;;4.07;3.70;;;10.10;99.90;;;;;;5128989;28;19914;-78
2022/12/26 00:43:36;;;;;;;4.55;3.92;;;10.10;99.90;;;;;;5110196;28;20049;-78
2022/12/26 00:46:03;;;;;;;4.32;4.03;;;10.10;99.90;;;;;;5110863;28;20047;-78
2022/12/26 00:48:29;;;;;;;4.70;4.25;;;10.20;99.90;;;;;;5111167;28;20031;-78
2022/12/26 00:50:55;;;;;;;3.97;3.58;;;10.10;99.90;;;;;;5129114;28;20098;-77
2022/12/26 00:53:23;;;;;;;4.65;3.42;;;10.10;99.90;;;;;;5124995;28;20020;-78
2022/12/26 00:55:49;;;;;;;4.40;4.05;;;10.10;99.90;;;;;;5107187;28;20039;-77
2022/12/26 00:58:14;;;;;;;3.47;3.17;;;10.10;99.90;;;;;;5108211;28;20036;-78
2022/12/26 01:00:40;;;;;;;3.30;3.00;;;10.20;99.90;;;;;;5108944;28;20034;-77
2022/12/26 01:03:08;;;;;;;4.03;3.08;;;10.20;99.90;;;;;;5109364;28;20031;-78
2022/12/26 01:05:34;;;;;;;3.55;3.33;;;10.20;99.90;;;;;;5117650;28;20058;-77
2022/12/26 01:08:00;;;;;;;2.92;2.50;;;10.20;99.90;;;;;;5110389;28;20039;-78
2022/12/26 01:10:27;;;;;;;2.70;2.45;;;10.20;99.90;;;;;;5128267;28;20058;-78
2022/12/26 01:12:53;;;;;;;3.35;2.67;;;10.30;99.90;;;;;;5092907;28;20069;-78
2022/12/26 01:15:19;;;;;;;3.53;2.72;;;10.20;99.90;;;;;;5108365;28;20040;-78
2022/12/26 01:17:46;;;;;;;4.20;3.15;;;10.20;99.90;;;;;;5106326;28;20039;-78
2022/12/26 01:20:12;;;;;;;3.97;2.58;;;10.20;99.90;;;;;;5106395;28;20022;-77
2022/12/26 01:22:38;;;;;;;4.57;3.20;;;10.20;99.90;;;;;;5111958;28;20015;-78
2022/12/26 01:25:04;;;;;;;4.35;3.95;;;10.30;99.90;;;;;;5092593;28;20487;-78
2022/12/26 01:27:30;;;;;;;4.50;3.95;;;10.20;99.90;;;;;;5085268;28;20050;-77
2022/12/26 01:29:56;;;;;;;3.80;3.25;;;10.30;99.90;;;;;;5109361;28;20032;-77
2022/12/26 01:32:23;;;;;;;4.95;4.55;;;10.30;99.90;;;;;;5106155;28;20023;-78
2022/12/26 01:34:50;;;;;;;4.00;3.60;;;10.30;99.90;;;;;;5107781;28;20118;-77
2022/12/26 01:37:17;;;;;;;3.25;2.95;;;10.20;99.90;;;;;;5109363;28;20043;-77
2022/12/26 01:39:43;;;;;;;4.32;3.90;;;10.20;99.90;;;;;;5092610;28;20056;-77
2022/12/26 01:42:14;;;;;;;4.20;3.85;;;10.10;99.90;;;;;;5092902;28;20028;-77
2022/12/26 01:45:04;;;;;;;5.00;4.22;;;10.10;99.90;;;;;;5106194;28;20028;-78
2022/12/26 01:47:45;;;;;;;4.88;4.47;;;10.10;99.90;;;;;;5107964;28;20092;-78
2022/12/26 01:50:30;;;;;;;5.85;4.40;;;10.10;99.90;;;;;;5109153;28;20028;-77
2022/12/26 01:53:01;;;;;;;4.30;3.83;;;10.20;99.90;;;;;;5107620;28;20024;-78
2022/12/26 01:55:28;;;;;;;4.18;3.78;;;10.20;99.90;;;;;;5119925;28;20032;-78
2022/12/26 01:58:00;;;;;;;4.25;3.47;;;10.20;99.90;;;;;;5118396;28;20020;-77
2022/12/26 02:00:27;;;;;;;5.90;3.38;;;10.20;99.90;;;;;;5106342;28;20032;-78
2022/12/26 02:05:41;;;;;;;5.72;3.92;;;10.20;99.90;;;;;;5097111;28;20032;-78
2022/12/26 02:08:18;;;;;;;4.97;4.28;;;10.20;99.90;;;;;;5107502;28;20032;-78
2022/12/26 02:10:58;;;;;;;4.40;4.05;;;10.20;99.90;;;;;;5088911;28;20126;-77
2022/12/26 02:13:25;;;;;;;5.13;4.63;;;10.10;99.90;;;;;;5109240;28;20098;-78
2022/12/26 02:15:52;;;;;;;4.80;4.40;;;10.10;99.90;;;;;;5105399;28;20055;-78
2022/12/26 02:18:17;;;;;;;4.95;4.53;;;10.20;99.90;;;;;;5088997;28;20028;-77
2022/12/26 02:21:01;;;;;;;4.75;4.28;;;10.10;99.90;;;;;;5105736;28;20054;-78
2022/12/26 02:23:46;;;;;;;5.70;5.15;;;10.10;99.90;;;;;;5109181;28;20024;-77
2022/12/26 02:26:40;;;;;;;4.47;4.00;;;10.20;99.90;;;;;;5126598;28;20441;-78
2022/12/26 02:29:34;;;;;;;4.53;4.13;;;10.20;99.90;;;;;;5088560;28;20019;-78
2022/12/26 02:32:09;;;;;;;4.85;4.35;;;10.10;99.90;;;;;;5105587;28;20020;-78
2022/12/26 02:34:58;;;;;;;4.47;4.18;;;10.10;99.90;;;;;;5110492;28;20078;-77
2022/12/26 02:37:30;;;;;;;5.65;4.55;;;10.10;99.90;;;;;;5075487;28;20060;-78
2022/12/26 02:40:22;;;;;;;4.57;4.03;;;10.10;99.90;;;;;;5107411;28;20027;-77
2022/12/26 02:43:00;;;;;;;4.38;4.03;;;10.00;99.90;;;;;;5105219;28;20111;-78
2022/12/26 02:48:56;;;;;;;4.95;4.20;;;9.90;99.90;;;;;;5126403;28;20027;-78
2022/12/26 03:14:47;;;;;;;4.65;4.25;;;9.80;99.90;;;;;;5118288;28;20044;-78
2022/12/26 03:17:35;;;;;;;4.50;4.10;;;9.80;99.90;;;;;;5110280;28;20032;-78
2022/12/26 03:20:07;;;;;;;4.95;4.55;;;9.70;99.90;;;;;;5108820;28;20024;-78
2022/12/26 03:22:45;;;;;;;4.20;3.70;;;9.70;99.90;;;;;;5111671;28;20480;-78
2022/12/26 03:28:21;;;;;;;4.78;4.35;;;9.70;99.90;;;;;;5110607;28;20028;-78
2022/12/26 03:30:50;;;;;;;5.70;4.38;;;9.70;99.90;;;;;;5108645;28;20103;-78
2022/12/26 03:36:28;;;;;;;5.05;4.35;;;9.60;99.90;;;;;;5126071;28;20023;-78
2022/12/26 03:38:57;;;;;;;5.68;5.18;;;9.60;99.90;;;;;;5109893;28;20020;-78
2022/12/26 04:19:26;;;;;;;8.65;7.80;;;9.30;99.90;;;;;;5109101;28;20032;-78
2022/12/26 04:45:08;;;;;;;12.55;5.95;;;9.30;99.90;;;;;;5106920;28;20073;-78
2022/12/26 04:47:34;;;;;;;5.35;4.85;;;9.30;99.90;;;;;;5107311;28;20032;-78
2022/12/26 04:50:11;;;;;;;5.13;4.10;;;9.20;99.90;;;;;;5109733;28;20100;-78
2022/12/26 04:52:57;;;;;;;4.13;3.72;;;9.20;99.90;;;;;;5110969;28;20028;-78
2022/12/26 04:55:25;;;;;;;4.60;2.97;;;9.20;99.90;;;;;;5107480;28;20043;-78
2022/12/26 04:57:52;;;;;;;4.20;3.80;;;9.30;99.90;;;;;;5108538;28;20028;-78
2022/12/26 05:00:17;;;;;;;3.75;3.33;;;9.20;99.90;;;;;;5108980;28;20032;-78
2022/12/26 05:11:12;;;;;;;3.78;3.47;;;9.20;99.90;;;;;;5125244;28;20092;-77
2022/12/26 05:13:38;;;;;;;6.15;3.42;;;9.10;99.90;;;;;;5109612;28;20028;-78
2022/12/26 05:29:49;;;;;;;3.08;2.45;;;9.10;99.90;;;;;;5127815;28;20391;-78
2022/12/26 05:34:59;;;;;;;3.88;3.22;;;9.00;99.90;;;;;;5095047;28;20476;-78
2022/12/26 05:37:26;;;;;;;2.60;2.40;;;9.10;99.90;;;;;;5088747;28;20108;-78
2022/12/26 05:39:51;;;;;;;2.83;2.63;;;9.00;99.90;;;;;;5106324;28;20103;-78
2022/12/26 05:42:17;;;;;;;3.30;2.75;;;9.00;99.90;;;;;;5089463;28;20450;-78
2022/12/26 05:44:43;;;;;;;2.35;2.22;;;9.10;99.90;;;;;;5113568;28;20080;-78
2022/12/26 05:47:09;;;;;;;2.95;2.75;;;9.10;99.90;;;;;;5109681;28;20035;-78
2022/12/26 05:49:36;;;;;;;2.47;2.28;;;9.10;99.90;;;;;;5108868;28;20456;-78
2022/12/26 05:52:02;;;;;;;2.65;2.45;;;9.10;99.90;;;;;;5122805;28;20031;-78
2022/12/26 05:54:28;;;;;;;2.25;2.15;;;9.10;99.90;;;;;;5092085;28;20035;-78
2022/12/26 05:56:54;;;;;;;4.30;2.80;;;9.10;99.90;;;;;;5105575;28;20040;-77
2022/12/26 05:59:19;;;;;;;2.65;2.42;;;9.10;99.90;;;;;;5072365;28;20095;-78
2022/12/26 06:01:45;;;;;;;5.68;2.80;;;9.10;99.90;;;;;;5109075;28;20072;-78
2022/12/26 06:04:12;;;;;;;2.95;2.72;;;9.00;99.90;;;;;;5084291;28;20183;-78
2022/12/26 06:06:38;;;;;;;3.10;2.45;;;9.00;99.90;;;;;;5109797;28;20032;-78
2022/12/26 06:09:03;;;;;;;3.83;2.58;;;9.10;99.90;;;;;;5109429;28;20032;-78
2022/12/26 06:11:29;;;;;;;3.90;3.38;;;9.10;99.90;;;;;;5092271;28;20028;-78
2022/12/26 06:13:55;;;;;;;3.80;2.65;;;9.00;99.90;;;;;;5108889;28;20031;-77
2022/12/26 06:16:22;;;;;;;2.95;2.67;;;9.10;99.90;;;;;;5109109;28;20039;-78
2022/12/26 06:18:48;;;;;;;4.18;3.67;;;9.10;99.90;;;;;;5127246;28;20054;-78
2022/12/26 06:21:17;;;;;;;2.65;2.45;;;9.10;99.90;;;;;;5073330;28;20032;-78
2022/12/26 06:23:44;;;;;;;8.23;3.10;;;9.10;99.90;;;;;;5094394;28;20095;-78
2022/12/26 06:26:11;;;;;;;2.75;2.55;;;9.10;99.90;;;;;;5114688;28;20293;-77
2022/12/26 06:28:39;;;;;;;2.92;2.75;;;9.20;99.90;;;;;;5118532;28;20476;-78
2022/12/26 06:31:13;;;;;;;5.40;3.30;;;9.30;99.90;;;;;;5090785;28;20032;-78
2022/12/26 06:33:39;;;;;;;2.92;2.70;;;9.30;99.90;;;;;;5092780;28;20064;-78
2022/12/26 06:36:11;;;;;;;4.28;3.33;;;9.40;99.90;;;;;;5116344;28;20020;-78
2022/12/26 06:38:37;;;;;;;3.70;3.40;;;9.40;99.90;;;;;;5080747;28;20021;-77
2022/12/26 06:41:08;;;;;;;4.40;3.45;;;9.40;99.90;;;;;;5108045;28;20107;-77
2022/12/26 06:43:34;;;;;;;2.97;2.72;;;9.50;99.90;;;;;;5076015;28;20033;-76
2022/12/26 06:46:04;;;;;;;3.63;3.33;;;9.50;99.90;;;;;;5107825;28;20016;-77
2022/12/26 06:48:31;;;;;;;3.40;2.88;;;9.60;99.90;;;;;;5099079;28;20028;-77
2022/12/26 06:50:57;;;;;;;2.95;2.72;;;9.60;99.90;;;;;;5095091;28;20012;-77
2022/12/26 06:53:26;;;;;;;2.85;2.65;;;9.60;99.90;;;;;;5095821;28;20037;-77
2022/12/26 06:55:52;;;;;;;4.10;2.78;;;9.60;99.90;;;;;;5088736;28;20035;-77
2022/12/26 06:58:18;;;;;;;3.30;3.00;;;9.70;99.90;;;;;;5096608;28;20092;-77
2022/12/26 07:00:44;;;;;;;3.60;3.20;;;9.80;99.90;;;;;;5107492;28;20028;-77
2022/12/26 07:03:10;;;;;;;8.68;6.10;;;9.70;99.90;;;;;;5090942;28;20012;-77
2022/12/26 07:05:37;;;;;;;4.15;3.78;;;9.70;99.90;;;;;;5095416;28;20008;-77
2022/12/26 07:08:03;;;;;;;4.82;4.35;;;9.80;99.90;;;;;;5111630;28;20123;-77
2022/12/26 07:10:35;;;;;;;3.33;2.72;;;9.80;99.90;;;;;;5085402;28;20028;-77
2022/12/26 07:13:01;;;;;;;6.28;5.65;;;9.90;99.90;;;;;;5119730;28;20070;-77
2022/12/26 07:15:27;;;;;;;2.40;2.20;;;9.80;99.90;;;;;;5120032;28;20056;-77
2022/12/26 07:17:52;;;;;;;4.00;3.70;;;9.90;99.90;;;;;;5095731;28;20032;-77
2022/12/26 07:20:18;;;;;;;3.15;2.85;;;10.00;99.90;;;;;;5118711;28;20527;-77
2022/12/26 07:22:44;;;;;;;3.00;2.67;;;9.90;99.90;;;;;;5121814;28;20507;-77
2022/12/26 07:25:10;;;;;;;3.47;3.10;;;9.80;99.90;;;;;;5098749;28;20034;-77
2022/12/26 07:27:37;;;;;;;2.42;2.22;;;9.80;99.90;;;;;;5104954;28;20032;-77
2022/12/26 07:30:03;;;;;;;4.22;3.65;;;9.80;99.90;;;;;;5092143;28;20039;-77
2022/12/26 07:32:29;;;;;;;12.80;11.27;;;9.70;99.90;;;;;;5065102;28;20029;-77
2022/12/26 07:34:55;;;;;;;8.23;7.43;;;9.60;99.90;;;;;;5088789;28;20088;-77
2022/12/26 07:37:21;;;;;;;4.85;4.32;;;9.60;99.90;;;;;;5107334;28;20031;-77
2022/12/26 07:39:47;;;;;;;5.82;5.32;;;9.60;99.90;;;;;;5074644;28;20024;-77
2022/12/26 07:42:13;;;;;;;6.47;4.90;;;9.60;99.90;;;;;;5080066;28;20074;-77
2022/12/26 07:44:40;;;;;;;3.38;3.17;;;9.50;99.90;;;;;;5072843;28;20028;-77
2022/12/26 07:47:06;;;;;;;3.63;3.33;;;9.50;99.90;;;;;;5067756;28;20024;-77
2022/12/26 07:49:33;;;;;;;4.65;3.67;;;9.50;99.90;;;;;;5082540;28;20081;-77
2022/12/26 07:52:03;;;;;;;5.13;3.97;;;9.50;99.90;;;;;;5084322;28;20051;-77
2022/12/26 07:54:31;;;;;;;3.03;2.67;;;9.50;99.90;;;;;;5084166;28;20036;-77
2022/12/26 07:56:57;;;;;;;2.65;2.45;;;9.50;99.90;;;;;;5117107;28;20059;-78
2022/12/26 07:59:23;;;;;;;3.92;3.63;;;;;;;;;;5108247;28;20039;-77
2022/12/26 08:01:49;;;;;;;4.20;2.40;;;9.50;99.90;;;;;;5084440;28;20024;-77
2022/12/26 08:04:15;;;;;;;2.80;2.60;;;9.50;99.90;;;;;;5085049;28;20528;-76
2022/12/26 08:06:41;;;;;;;5.28;4.47;;;9.50;99.90;;;;;;5082008;28;20032;-77
2022/12/26 08:09:10;;;;;;;3.33;3.13;;;9.50;99.90;;;;;;5076266;28;20040;-77
2022/12/26 08:11:36;;;;;;;2.15;1.42;;;9.50;99.90;;;;;;5111990;28;20031;-77
2022/12/26 08:14:02;;;;;;;4.68;4.28;;;9.50;99.90;;;;;;5100162;28;20135;-77
2022/12/26 08:16:30;;;;;;;2.85;2.65;;;9.50;99.90;;;;;;5082651;28;20032;-77
2022/12/26 08:18:56;;;;;;;2.65;2.45;;;9.50;99.90;;;;;;5092786;28;20039;-76
2022/12/26 08:21:22;;;;;;;2.83;2.58;;;9.50;99.90;;;;;;5079090;28;20017;-77
2022/12/26 08:23:48;;;;;;;6.80;2.60;;;9.50;99.90;;;;;;5084759;28;20020;-78
2022/12/26 08:26:19;;;;;;;2.30;2.00;;;9.50;99.90;;;;;;5118154;28;20031;-77
2022/12/26 08:28:47;;;;;;;2.13;1.70;;;9.40;99.90;;;;;;5092940;28;20023;-77
2022/12/26 08:31:13;;;;;;;2.78;2.60;;;9.50;99.90;;;;;;5085774;28;20047;-77
2022/12/26 08:33:39;;;;;;;1.55;1.45;;;9.50;99.90;;;;;;5082548;28;20033;-77
2022/12/26 08:36:11;;;;;;;2.88;2.67;;;9.40;99.90;;;;;;5100699;28;20035;-77
2022/12/26 08:38:38;;;;;;;2.13;1.92;;;9.50;99.90;;;;;;5095950;28;21356;-78
2022/12/26 08:41:05;;;;;;;1.95;1.85;;;9.60;99.90;;;;;;5094488;28;20028;-78
2022/12/26 08:43:31;;;;;;;1.30;1.20;;;9.70;99.90;;;;;;5107986;28;20028;-78
2022/12/26 08:46:02;;;;;;;1.90;1.45;;;9.80;99.90;;;;;;5109305;28;20039;-77
2022/12/26 08:59:31;;;;;;;1.02;1.02;;;10.00;99.90;;;;;;5208233;23;20065;-77
2022/12/26 09:01:57;;;;;;;2.55;2.15;;;10.00;99.90;;;;;;4991875;28;20473;-76
2022/12/26 09:04:22;;;;;;;15.35;1.70;;;10.10;99.90;;;;;;4991935;28;20023;-77
2022/12/26 09:06:48;;;;;;;1.75;1.27;;;10.20;99.90;;;;;;4964370;29;20047;-77
2022/12/26 09:09:14;;;;;;;1.27;0.80;;;10.30;99.90;;;;;;4972486;29;20062;-76
2022/12/26 09:11:41;;;;;;;3.30;2.28;;;10.50;99.90;;;;;;4955726;29;20083;-76
2022/12/26 09:14:07;;;;;;;0.80;0.80;;;10.50;99.90;;;;;;4975819;28;20089;-77
2022/12/26 09:16:42;;;;;;;3.22;1.30;;;11.00;99.90;;;;;;4979140;28;20050;-77
2022/12/26 09:19:13;;;;;;;3.00;0.70;;;11.90;99.90;;;;;;4974038;28;20024;-72
2022/12/26 09:21:40;;;;;;;7.57;1.23;;;12.90;99.90;;;;;;4985046;28;20023;-72
2022/12/26 09:24:13;;;;;;;2.25;1.23;;;13.80;99.90;;;;;;4987676;28;20419;-72
2022/12/26 09:26:39;;;;;;;19.35;13.05;;;14.50;99.90;;;;;;4970882;28;20030;-73
2022/12/26 09:29:06;;;;;;;4.25;3.85;;;15.20;99.90;;;;;;4986102;28;20089;-73
2022/12/26 09:31:33;;;;;;;3.97;1.05;;;15.20;99.90;;;;;;4985975;28;20035;-73
2022/12/26 09:34:05;;;;;;;1.67;1.00;;;14.70;99.90;;;;;;4987756;28;20027;-72
2022/12/26 09:36:34;;;;;;;1.05;0.80;;;14.50;99.90;;;;;;4992664;28;20031;-72
2022/12/26 09:39:00;;;;;;;4.28;2.25;;;15.30;99.90;;;;;;4988030;28;20027;-73
2022/12/26 09:41:38;;;;;;;4.32;1.17;;;14.90;99.90;;;;;;4987402;28;20026;-73
2022/12/26 09:44:25;;;;;;;2.03;1.83;;;13.50;99.90;;;;;;4987471;28;20022;-72
2022/12/26 09:47:19;;;;;;;2.95;0.98;;;12.60;99.90;;;;;;4997845;28;20057;-73
2022/12/26 09:49:57;;;;;;;3.70;1.05;;;12.40;99.90;;;;;;5002393;28;20045;-73
2022/12/26 09:52:49;;;;;;;1.40;1.30;;;12.00;99.90;;;;;;5000566;28;20490;-74
2022/12/26 09:55:25;;;;;;;1.15;1.05;;;11.70;99.90;;;;;;4981768;28;20039;-73
2022/12/26 09:57:53;;;;;;;1.88;0.90;;;11.60;99.90;;;;;;4987005;28;20034;-73
2022/12/26 10:00:24;;;;;;;2.85;1.63;;;11.60;99.90;;;;;;4970020;28;20050;-73
2022/12/26 10:02:56;;;;;;;2.45;0.73;;;12.10;99.90;;;;;;4987136;28;20023;-73
2022/12/26 10:05:31;;;;;;;0.50;0.50;;;12.80;99.90;;;;;;4987346;28;20030;-73
2022/12/26 10:08:02;;;;;;;2.40;0.90;;;13.20;99.90;;;;;;4987589;28;20462;-73
2022/12/26 10:10:56;;;;;;;2.97;1.73;;;13.00;99.90;;;;;;4986217;28;20034;-73
2022/12/26 10:13:25;;;;;;;1.70;0.90;;;12.50;99.90;;;;;;4975796;28;20027;-73
2022/12/26 10:16:01;;;;;;;5.20;1.77;;;12.10;99.90;;;;;;4968208;28;20090;-73
2022/12/26 10:19:09;;;;;;;3.83;1.45;;;11.70;99.90;;;;;;4976614;28;20424;-73
2022/12/26 10:21:52;;;;;;;1.88;1.60;;;11.50;99.90;;;;;;4986815;28;20047;-73
2022/12/26 10:24:21;;;;;;;4.07;1.27;;;11.30;99.90;;;;;;4986090;28;20030;-73
2022/12/26 10:26:50;;;;;;;1.73;1.17;;;11.30;99.90;;;;;;4987268;28;20061;-73
2022/12/26 10:29:26;;;;;;;1.17;0.80;;;11.40;99.90;;;;;;4985374;28;20037;-73
2022/12/26 10:32:19;;;;;;;4.10;2.10;;;11.50;99.90;;;;;;4986375;28;20110;-72
2022/12/26 10:34:47;;;;;;;2.55;1.15;;;11.50;99.90;;;;;;4987108;28;20093;-72
2022/12/26 10:37:34;;;;;;;5.13;1.63;;;11.40;99.90;;;;;;4987007;28;20449;-72
2022/12/26 10:40:20;;;;;;;2.67;1.80;;;11.30;99.90;;;;;;4986803;28;20019;-72
2022/12/26 10:43:21;;;;;;;1.80;1.10;;;11.30;99.90;;;;;;4986538;28;20042;-72
2022/12/26 10:45:53;;;;;;;4.88;2.72;;;11.20;99.90;;;;;;4983840;28;20034;-72
2022/12/26 10:48:19;;;;;;;2.47;2.22;;;11.20;99.90;;;;;;4986660;28;20030;-72
2022/12/26 10:50:48;;;;;;;7.00;4.10;;;11.10;99.90;;;;;;4987035;28;20066;-72
2022/12/26 10:53:15;;;;;;;4.50;3.28;;;11.20;99.90;;;;;;4987147;28;20038;-72
2022/12/26 10:55:41;;;;;;;3.25;2.35;;;11.30;99.90;;;;;;4986654;28;20101;-72
2022/12/26 10:58:30;;;;;;;6.40;2.50;;;11.40;99.90;;;;;;4982426;28;20027;-72
2022/12/26 11:00:56;;;;;;;2.60;1.70;;;11.30;99.90;;;;;;4967600;28;20035;-73
2022/12/26 11:03:22;;;;;;;2.63;1.13;;;11.40;99.90;;;;;;4994400;28;20019;-73
2022/12/26 11:05:55;;;;;;;2.15;1.65;;;11.40;99.90;;;;;;5006159;28;20475;-73
2022/12/26 11:08:26;;;;;;;5.82;1.52;;;11.40;99.90;;;;;;5000286;28;20069;-74
2022/12/26 11:11:13;;;;;;;2.00;0.70;;;11.30;99.90;;;;;;4996656;28;20035;-73
2022/12/26 11:13:45;;;;;;;2.33;1.23;;;11.40;99.90;;;;;;5006500;28;20037;-72
2022/12/26 11:16:12;;;;;;;11.30;1.95;;;11.40;99.90;;;;;;4985700;28;20030;-72
2022/12/26 11:18:51;;;;;;;8.38;1.60;;;11.60;99.90;;;;;;4975126;28;20030;-72
2022/12/26 11:21:16;;;;;;;4.80;1.38;;;12.10;99.90;;;;;;4972224;28;20094;-72
2022/12/26 11:23:46;;;;;;;2.95;1.05;;;12.30;99.90;;;;;;4982716;28;20034;-72
2022/12/26 11:26:19;;;;;;;3.10;1.52;;;12.20;99.90;;;;;;4987275;28;20030;-72
2022/12/26 11:28:45;;;;;;;4.75;2.92;;;12.20;99.90;;;;;;4972653;28;20031;-72
2022/12/26 11:31:26;;;;;;;10.18;1.38;;;12.00;99.90;;;;;;4989468;28;20026;-72
2022/12/26 11:33:52;;;;;;;5.10;1.40;;;11.80;99.90;;;;;;4989714;28;20026;-74
2022/12/26 11:36:25;;;;;;;1.95;1.38;;;11.30;99.90;;;;;;4989652;28;20018;-74
2022/12/26 11:39:01;;;;;;;2.58;1.75;;;11.00;99.90;;;;;;4988599;28;20037;-74
2022/12/26 11:41:35;;;;;;;2.80;1.10;;;10.80;99.90;;;;;;4982367;28;20039;-72
2022/12/26 11:44:13;;;;;;;6.18;1.25;;;10.50;99.90;;;;;;4985758;28;20026;-72
2022/12/26 11:46:59;;;;;;;1.77;1.00;;;10.50;99.90;;;;;;4990010;28;20058;-73
2022/12/26 11:49:34;;;;;;;2.45;1.73;;;10.50;99.90;;;;;;4987818;28;20035;-73
2022/12/26 11:52:21;;;;;;;5.65;2.35;;;10.50;99.90;;;;;;4961626;28;20038;-73
2022/12/26 11:54:48;;;;;;;6.63;2.28;;;10.40;99.90;;;;;;4970443;28;20027;-74
2022/12/26 11:57:19;;;;;;;3.17;1.45;;;10.70;99.90;;;;;;4971182;28;20023;-74
2022/12/26 11:59:46;;;;;;;3.47;2.03;;;10.80;99.90;;;;;;4988523;28;20121;-73
2022/12/26 12:02:20;;;;;;;6.70;2.15;;;11.00;99.90;;;;;;4982751;28;20083;-74
2022/12/26 12:04:47;;;;;;;2.53;1.25;;;11.00;99.90;;;;;;4980980;28;20495;-74
2022/12/26 12:07:42;;;;;;;4.72;1.42;;;11.20;99.90;;;;;;4984914;28;20034;-74
2022/12/26 12:10:29;;;;;;;0.80;0.80;;;11.20;99.90;;;;;;4988109;28;20031;-74
2022/12/26 12:13:01;;;;;;;4.18;1.17;;;11.00;99.90;;;;;;4986535;28;20110;-74
2022/12/26 12:16:16;;;;;;;3.15;1.42;;;10.90;99.90;;;;;;4980308;28;20035;-74
2022/12/26 12:18:44;;;;;;;2.10;1.55;;;10.80;99.90;;;;;;4940652;28;20047;-74
2022/12/26 12:21:10;;;;;;;5.82;2.78;;;10.80;99.90;;;;;;4975535;28;20031;-74
2022/12/26 12:23:45;;;;;;;3.45;1.90;;;10.70;99.90;;;;;;4982463;28;20035;-74
2022/12/26 12:26:24;;;;;;;2.33;1.63;;;10.70;99.90;;;;;;4969769;28;20039;-74
2022/12/26 12:28:56;;;;;;;3.83;1.80;;;10.70;99.90;;;;;;4978161;28;20026;-73
2022/12/26 12:31:27;;;;;;;2.55;1.45;;;10.70;99.90;;;;;;4976529;28;20377;-73
2022/12/26 12:34:10;;;;;;;5.85;1.48;;;10.60;99.90;;;;;;4989077;28;20034;-74
2022/12/26 12:37:02;;;;;;;4.32;1.85;;;10.60;99.90;;;;;;4986269;28;20094;-74
2022/12/26 12:39:50;;;;;;;7.18;3.03;;;10.50;99.90;;;;;;4987856;28;20082;-74
2022/12/26 12:42:44;;;;;;;9.60;2.72;;;10.40;99.90;;;;;;4988512;28;20031;-72
2022/12/26 12:45:21;;;;;;;12.75;7.15;;;10.20;99.90;;;;;;4987122;28;20078;-72
2022/12/26 12:48:20;;;;;;;13.95;4.05;;;10.20;99.90;;;;;;4985194;28;20037;-72
2022/12/26 12:51:19;;;;;;;11.75;3.63;;;10.20;99.90;;;;;;4984183;28;20050;-72
2022/12/26 12:54:32;;;;;;;5.95;3.78;;;10.10;99.90;;;;;;4986113;28;20032;-71
2022/12/26 12:57:18;;;;;;;3.92;3.15;;;10.10;99.90;;;;;;4986688;28;20117;-72
2022/12/26 13:00:00;;;;;;;8.82;2.85;;;10.00;99.90;;;;;;4987897;28;20050;-71
2022/12/26 13:02:50;;;;;;;4.28;2.67;;;9.90;99.90;;;;;;4988086;28;20027;-71
2022/12/26 13:05:37;;;;;;;4.97;2.20;;;9.80;99.90;;;;;;4986620;28;20030;-72
2022/12/26 13:08:19;;;;;;;5.75;3.17;;;9.80;99.90;;;;;;4986920;28;20034;-73
2022/12/26 13:11:04;;;;;;;5.55;2.55;;;10.00;99.90;;;;;;4985129;28;20103;-72
2022/12/26 13:13:46;;;;;;;3.38;2.13;;;10.00;99.90;;;;;;4977989;28;20091;-72
2022/12/26 13:16:19;;;;;;;9.77;1.42;;;10.10;99.90;;;;;;4985533;28;20259;-72
2022/12/26 13:18:52;;;;;;;4.88;3.22;;;10.00;99.90;;;;;;4970384;28;20031;-72
2022/12/26 13:21:20;;;;;;;2.85;1.38;;;9.90;99.90;;;;;;4988436;28;20035;-72
2022/12/26 13:26:57;;;;;;;6.88;2.00;;;9.70;99.90;;;;;;4985774;28;20038;-74
2022/12/26 13:29:43;;;;;;;10.93;2.90;;;9.60;99.90;;;;;;4988139;28;20054;-73
2022/12/26 13:32:25;;;;;;;6.00;3.38;;;9.40;99.90;;;;;;5003097;28;20035;-73
2022/12/26 13:34:53;;;;;;;3.80;2.55;;;9.40;99.90;;;;;;4986191;28;20033;-73
2022/12/26 13:37:37;;;;;;;2.38;1.80;;;9.40;99.90;;;;;;4986644;28;20467;-73
2022/12/26 13:40:12;;;;;;;1.60;1.38;;;9.40;99.90;;;;;;4984411;28;20061;-73
2022/12/26 13:45:42;;;;;;;6.82;3.40;;;9.40;99.90;;;;;;4978024;28;20050;-73
2022/12/26 13:48:17;;;;;;;8.45;2.78;;;9.40;99.90;;;;;;4979309;28;20035;-73
2022/12/26 13:50:47;;;;;;;7.40;3.28;;;9.50;99.90;;;;;;4987490;28;20035;-73
2022/12/26 13:53:36;;;;;;;5.13;3.28;;;9.60;99.90;;;;;;4986568;28;20042;-73
2022/12/26 13:56:09;;;;;;;3.05;1.08;;;9.70;99.90;;;;;;4987698;28;20026;-72
2022/12/26 13:58:38;;;;;;;2.15;1.42;;;9.50;99.90;;;;;;4984157;28;20050;-73
2022/12/26 14:01:25;;;;;;;1.73;0.95;;;9.30;99.90;;;;;;4986986;28;20034;-73
2022/12/26 14:04:10;;;;;;;3.08;1.42;;;9.10;99.90;;;;;;4985419;28;20038;-72
2022/12/26 14:06:39;;;;;;;2.72;1.65;;;9.10;99.90;;;;;;4982650;28;20057;-73
2022/12/26 14:09:16;;;;;;;1.60;0.60;;;9.00;99.90;;;;;;4984104;28;20042;-73
2022/12/26 14:11:59;;;;;;;4.43;1.50;;;8.90;99.90;;;;;;4987338;28;20026;-73
2022/12/26 14:14:56;;;;;;;1.58;1.30;;;8.80;99.90;;;;;;4986764;28;20045;-73
2022/12/26 14:17:35;;;;;;;4.03;1.00;;;8.80;99.90;;;;;;4987228;28;20074;-73
2022/12/26 14:20:17;;;;;;;13.23;4.88;;;8.70;99.90;;;;;;4985774;28;20050;-73
2022/12/26 14:22:58;;;;;;;3.53;2.00;;;8.60;99.90;;;;;;4986181;28;20039;-73
2022/12/26 14:25:43;;;;;;;3.58;2.75;;;8.70;99.90;;;;;;4985335;28;20070;-73
2022/12/26 14:28:23;;;;;;;4.22;2.10;;;8.60;99.90;;;;;;4969561;28;20098;-73
2022/12/26 14:31:11;;;;;;;2.95;2.17;;;8.40;99.90;;;;;;4987425;28;20027;-74
2022/12/26 14:33:50;;;;;;;4.78;1.38;;;8.20;99.90;;;;;;4987221;28;20037;-72
2022/12/26 14:36:40;;;;;;;3.53;2.08;;;8.10;99.90;;;;;;4985133;28;20107;-73
2022/12/26 14:39:27;;;;;;;13.43;1.77;;;7.90;99.90;;;;;;4974966;28;20516;-73
2022/12/26 14:44:51;;;;;;;1.58;1.30;;;7.70;99.90;;;;;;4985804;28;20027;-72
2022/12/26 14:47:41;;;;;;;3.20;2.90;;;7.50;99.90;;;;;;4985510;28;20022;-72
2022/12/26 14:50:35;;;;;;;1.95;1.60;;;7.30;99.90;;;;;;4986203;28;20037;-73
2022/12/26 14:53:27;;;;;;;2.13;1.75;;;7.20;99.90;;;;;;4966186;28;20181;-73
2022/12/26 14:55:52;;;;;;;3.13;1.95;;;7.10;99.90;;;;;;4983528;28;20046;-73
2022/12/26 14:58:30;;;;;;;1.40;1.30;;;7.00;99.90;;;;;;4984867;28;20031;-73
2022/12/26 15:01:23;;;;;;;8.93;1.55;;;7.00;99.90;;;;;;4982417;28;20023;-72
2022/12/26 15:04:07;;;;;;;11.98;2.10;;;6.80;99.90;;;;;;4979643;28;20038;-73
2022/12/26 15:07:04;;;;;;;9.65;1.98;;;6.70;99.90;;;;;;4982099;28;20109;-73
2022/12/26 15:09:39;;;;;;;3.85;1.63;;;6.70;99.90;;;;;;4986782;28;20023;-72
2022/12/26 15:12:41;;;;;;;1.30;0.80;;;6.70;99.90;;;;;;4984904;28;20029;-72
2022/12/26 15:15:32;;;;;;;9.02;1.67;;;6.60;99.90;;;;;;4984189;28;20050;-72
2022/12/26 15:18:07;;;;;;;1.05;0.98;;;6.50;99.90;;;;;;4986689;28;20053;-72
2022/12/26 15:20:48;;;;;;;4.28;1.90;;;6.50;99.90;;;;;;4985425;28;20031;-72
2022/12/26 15:23:30;;;;;;;5.30;2.58;;;6.30;99.90;;;;;;4982165;28;20028;-72
2022/12/26 15:26:27;;;;;;;4.80;1.27;;;6.20;99.90;;;;;;4962688;28;20122;-72
2022/12/26 15:29:23;;;;;;;2.33;1.55;;;6.10;99.90;;;;;;4985186;28;20058;-73
2022/12/26 15:32:15;;;;;;;1.67;1.58;;;5.90;99.90;;;;;;4977525;28;20031;-72
2022/12/26 15:34:54;;;;;;;4.15;2.58;;;5.90;99.90;;;;;;4984939;28;20035;-72
2022/12/26 15:37:26;;;;;;;12.15;3.25;;;5.90;99.90;;;;;;4968918;28;20086;-73
2022/12/26 15:40:10;;;;;;;14.18;2.83;;;5.70;99.90;;;;;;4978756;28;20027;-74
2022/12/26 15:43:03;;;;;;;7.85;1.80;;;5.60;99.90;;;;;;4986485;28;20399;-74
2022/12/26 15:45:35;;;;;;;6.95;2.85;;;5.40;99.90;;;;;;4986425;28;20047;-74
2022/12/26 15:48:29;;;;;;;13.75;2.28;;;5.30;99.90;;;;;;4986565;28;20464;-74